Private Wetterstation Sandau
Wetterdaten: Montag, 16.07.2012
Datum Zeit Temp. A. Feuchte A. Luftdruck Regen Wind Richtung Richtung Taupunkt Windchill
16.07.2012 00:01 15,1 C 71 % 1016,3 hPa 0,0 l/m 0,0 km/h (0 Bft) W-SW 247 9,9 C 15,1 C
16.07.2012 00:06 15,1 C 71 % 1016,4 hPa 0,0 l/m 0,0 km/h (0 Bft) W-SW 247 9,9 C 15,1 C
16.07.2012 00:11 15,0 C 71 % 1016,5 hPa 0,0 l/m 0,0 km/h (0 Bft) W-SW 247 9,8 C 15,0 C
16.07.2012 00:16 14,9 C 71 % 1016,5 hPa 0,0 l/m 0,0 km/h (0 Bft) W-SW 247 9,7 C 14,9 C
16.07.2012 00:21 14,9 C 71 % 1016,4 hPa 0,0 l/m 1,4 km/h (1 Bft) W-SW 247 9,7 C 14,9 C
16.07.2012 00:26 14,9 C 72 % 1016,4 hPa 0,0 l/m 0,0 km/h (0 Bft) W-SW 247 9,9 C 14,9 C
16.07.2012 00:31 14,9 C 72 % 1016,5 hPa 0,0 l/m 0,0 km/h (0 Bft) W-SW 247 9,9 C 14,9 C
16.07.2012 00:36 14,9 C 72 % 1016,7 hPa 0,0 l/m 0,0 km/h (0 Bft) W-SW 247 9,9 C 14,9 C
16.07.2012 00:41 14,9 C 72 % 1016,6 hPa 0,0 l/m 1,1 km/h (1 Bft) W-SW 247 9,9 C 14,9 C
16.07.2012 00:46 14,9 C 73 % 1016,7 hPa 0,0 l/m 0,0 km/h (0 Bft) W 270 10,1 C 14,9 C
16.07.2012 00:51 14,9 C 73 % 1016,8 hPa 0,0 l/m 0,0 km/h (0 Bft) W 270 10,1 C 14,9 C
16.07.2012 00:56 14,8 C 74 % 1016,8 hPa 0,0 l/m 0,0 km/h (0 Bft) W 270 10,2 C 14,8 C
16.07.2012 01:01 14,8 C 74 % 1017,0 hPa 0,0 l/m 0,0 km/h (0 Bft) W 270 10,2 C 14,8 C
16.07.2012 01:06 14,8 C 74 % 1016,7 hPa 0,0 l/m 4,7 km/h (1 Bft) W-SW 247 10,2 C 14,8 C
16.07.2012 01:11 14,8 C 75 % 1016,8 hPa 0,0 l/m 4,7 km/h (1 Bft) W 270 10,4 C 14,8 C
16.07.2012 01:16 14,8 C 74 % 1016,9 hPa 0,0 l/m 7,6 km/h (2 Bft) W-SW 247 10,2 C 14,8 C
16.07.2012 01:21 14,8 C 75 % 1016,9 hPa 0,0 l/m 4,3 km/h (1 Bft) W-SW 247 10,4 C 14,8 C
16.07.2012 01:26 14,8 C 75 % 1017,0 hPa 0,0 l/m 5,0 km/h (1 Bft) W 270 10,4 C 14,8 C
16.07.2012 01:31 14,8 C 75 % 1017,1 hPa 0,0 l/m 2,5 km/h (1 Bft) W 270 10,4 C 14,8 C
16.07.2012 01:36 14,7 C 76 % 1017,1 hPa 0,0 l/m 2,5 km/h (1 Bft) W-NW 292 10,5 C 14,7 C
16.07.2012 01:41 14,6 C 76 % 1017,2 hPa 0,0 l/m 1,8 km/h (1 Bft) W 270 10,4 C 14,6 C
16.07.2012 01:46 14,5 C 77 % 1017,3 hPa 0,0 l/m 2,9 km/h (1 Bft) W-NW 292 10,5 C 14,5 C
16.07.2012 01:51 14,4 C 77 % 1017,3 hPa 0,0 l/m 4,0 km/h (1 Bft) W-SW 247 10,4 C 14,4 C
16.07.2012 01:56 14,4 C 77 % 1017,1 hPa 0,0 l/m 8,3 km/h (2 Bft) W 270 10,4 C 14,4 C
16.07.2012 02:01 14,3 C 77 % 1017,3 hPa 0,0 l/m 3,2 km/h (1 Bft) W 270 10,3 C 14,3 C
16.07.2012 02:06 14,3 C 77 % 1017,3 hPa 0,0 l/m 4,7 km/h (1 Bft) W-NW 292 10,3 C 14,3 C
16.07.2012 02:11 14,2 C 77 % 1017,4 hPa 0,0 l/m 3,6 km/h (1 Bft) W-NW 292 10,2 C 14,2 C
16.07.2012 02:16 14,1 C 78 % 1017,3 hPa 0,0 l/m 4,3 km/h (1 Bft) W 270 10,3 C 14,1 C
16.07.2012 02:21 14,2 C 78 % 1017,4 hPa 0,0 l/m 1,8 km/h (1 Bft) W 270 10,4 C 14,2 C
16.07.2012 02:26 14,2 C 79 % 1017,6 hPa 0,0 l/m 12,2 km/h (2 Bft) W 270 10,6 C 14,2 C
16.07.2012 02:31 14,2 C 79 % 1017,5 hPa 0,0 l/m 6,1 km/h (2 Bft) NW 315 10,6 C 14,2 C
16.07.2012 02:36 14,1 C 79 % 1017,5 hPa 0,0 l/m 6,1 km/h (2 Bft) W-SW 247 10,5 C 14,1 C
16.07.2012 02:41 14,1 C 79 % 1017,6 hPa 0,0 l/m 3,2 km/h (1 Bft) W-NW 292 10,5 C 14,1 C
16.07.2012 02:46 14,1 C 80 % 1017,6 hPa 0,0 l/m 1,8 km/h (1 Bft) W-SW 247 10,7 C 14,1 C
16.07.2012 02:51 14,1 C 80 % 1017,8 hPa 0,0 l/m 6,1 km/h (2 Bft) W 270 10,7 C 14,1 C
16.07.2012 02:56 14,1 C 80 % 1017,8 hPa 0,0 l/m 8,3 km/h (2 Bft) W-SW 247 10,7 C 14,1 C
16.07.2012 03:01 14,1 C 81 % 1017,8 hPa 0,0 l/m 6,1 km/h (2 Bft) W 270 10,9 C 14,1 C
16.07.2012 03:06 14,1 C 81 % 1017,8 hPa 0,0 l/m 9,4 km/h (2 Bft) W-SW 247 10,9 C 14,1 C
16.07.2012 03:11 14,1 C 81 % 1017,8 hPa 0,0 l/m 12,6 km/h (3 Bft) W 270 10,9 C 14,1 C
16.07.2012 03:16 13,9 C 81 % 1017,7 hPa 0,0 l/m 5,0 km/h (1 Bft) W-SW 247 10,7 C 13,9 C
16.07.2012 03:21 13,9 C 82 % 1017,7 hPa 0,0 l/m 9,7 km/h (2 Bft) W 270 10,9 C 13,9 C
16.07.2012 03:26 13,9 C 82 % 1017,8 hPa 0,0 l/m 12,2 km/h (2 Bft) W-SW 247 10,9 C 13,9 C
16.07.2012 03:31 13,9 C 82 % 1017,9 hPa 0,0 l/m 9,4 km/h (2 Bft) W 270 10,9 C 13,9 C
16.07.2012 03:36 13,9 C 82 % 1017,8 hPa 0,0 l/m 13,7 km/h (3 Bft) W-SW 247 10,9 C 13,9 C
16.07.2012 03:41 13,8 C 82 % 1017,9 hPa 0,0 l/m 8,3 km/h (2 Bft) W-SW 247 10,8 C 13,8 C
16.07.2012 03:46 13,8 C 82 % 1017,9 hPa 0,0 l/m 13,3 km/h (3 Bft) W-SW 247 10,8 C 13,8 C
16.07.2012 03:51 13,8 C 83 % 1017,9 hPa 0,0 l/m 2,2 km/h (1 Bft) W 270 11,0 C 13,8 C
16.07.2012 03:56 13,8 C 83 % 1018,0 hPa 0,0 l/m 11,2 km/h (2 Bft) W 270 11,0 C 13,8 C
16.07.2012 04:01 13,8 C 83 % 1018,0 hPa 0,0 l/m 6,1 km/h (2 Bft) W-NW 292 11,0 C 13,8 C
16.07.2012 04:06 13,8 C 83 % 1018,0 hPa 0,0 l/m 1,4 km/h (1 Bft) W 270 11,0 C 13,8 C
16.07.2012 04:11 13,8 C 83 % 1018,0 hPa 0,0 l/m 5,8 km/h (2 Bft) W 270 11,0 C 13,8 C
16.07.2012 04:16 13,8 C 83 % 1017,9 hPa 0,0 l/m 2,5 km/h (1 Bft) W 270 11,0 C 13,8 C
16.07.2012 04:21 13,8 C 83 % 1018,1 hPa 0,0 l/m 5,0 km/h (1 Bft) S-SW 202 11,0 C 13,8 C
16.07.2012 04:26 13,6 C 83 % 1018,0 hPa 0,0 l/m 8,6 km/h (2 Bft) W-SW 247 10,8 C 13,6 C
16.07.2012 04:31 13,6 C 83 % 1018,2 hPa 0,0 l/m 6,8 km/h (2 Bft) W-SW 247 10,8 C 13,6 C
16.07.2012 04:36 13,5 C 84 % 1018,3 hPa 0,0 l/m 6,1 km/h (2 Bft) W-SW 247 10,8 C 13,5 C
16.07.2012 04:41 13,4 C 84 % 1018,2 hPa 0,0 l/m 19,1 km/h (3 Bft) W 270 10,8 C 13,4 C
16.07.2012 04:46 13,4 C 84 % 1018,3 hPa 0,0 l/m 5,8 km/h (2 Bft) W-SW 247 10,8 C 13,4 C
16.07.2012 04:51 13,3 C 84 % 1018,3 hPa 0,0 l/m 2,5 km/h (1 Bft) W-NW 292 10,7 C 13,3 C
16.07.2012 04:56 13,1 C 84 % 1018,1 hPa 0,0 l/m 9,4 km/h (2 Bft) W 270 10,5 C 13,1 C
16.07.2012 05:01 13,1 C 84 % 1018,1 hPa 0,0 l/m 8,6 km/h (2 Bft) W 270 10,5 C 13,1 C
16.07.2012 05:06 13,1 C 85 % 1018,1 hPa 0,0 l/m 6,1 km/h (2 Bft) W 270 10,6 C 13,1 C
16.07.2012 05:11 13,0 C 85 % 1018,2 hPa 0,0 l/m 9,4 km/h (2 Bft) W-SW 247 10,5 C 13,0 C
16.07.2012 05:16 12,9 C 85 % 1018,1 hPa 0,0 l/m 9,7 km/h (2 Bft) W-SW 247 10,4 C 12,9 C
16.07.2012 05:21 12,9 C 85 % 1018,3 hPa 0,0 l/m 6,8 km/h (2 Bft) W-SW 247 10,4 C 12,9 C
16.07.2012 05:26 12,9 C 85 % 1018,3 hPa 0,0 l/m 19,1 km/h (3 Bft) W-SW 247 10,4 C 12,9 C
16.07.2012 05:31 12,9 C 85 % 1018,4 hPa 0,0 l/m 11,5 km/h (2 Bft) W-SW 247 10,4 C 12,9 C
16.07.2012 05:36 12,9 C 85 % 1018,3 hPa 0,0 l/m 7,6 km/h (2 Bft) W 270 10,4 C 12,9 C
16.07.2012 05:41 12,9 C 85 % 1018,2 hPa 0,0 l/m 5,8 km/h (2 Bft) W-SW 247 10,4 C 12,9 C
16.07.2012 05:46 12,9 C 85 % 1018,4 hPa 0,0 l/m 9,0 km/h (2 Bft) W-SW 247 10,4 C 12,9 C
16.07.2012 05:51 13,0 C 85 % 1018,5 hPa 0,0 l/m 5,8 km/h (2 Bft) W-SW 247 10,5 C 13,0 C
16.07.2012 05:56 13,2 C 85 % 1018,5 hPa 0,0 l/m 4,0 km/h (1 Bft) W-SW 247 10,7 C 13,2 C
16.07.2012 06:01 13,9 C 84 % 1018,6 hPa 0,0 l/m 11,5 km/h (2 Bft) W-SW 247 11,2 C 13,9 C
16.07.2012 06:06 13,9 C 82 % 1018,7 hPa 0,0 l/m 15,1 km/h (3 Bft) W-SW 247 10,9 C 13,9 C
16.07.2012 06:11 13,5 C 83 % 1018,7 hPa 0,0 l/m 22,0 km/h (4 Bft) W 270 10,7 C 13,5 C
16.07.2012 06:16 13,5 C 84 % 1018,9 hPa 0,0 l/m 4,0 km/h (1 Bft) W 270 10,8 C 13,5 C
16.07.2012 06:21 13,6 C 83 % 1018,9 hPa 0,0 l/m 7,6 km/h (2 Bft) W 270 10,8 C 13,6 C
16.07.2012 06:26 13,5 C 83 % 1018,9 hPa 0,0 l/m 6,8 km/h (2 Bft) SW 225 10,7 C 13,5 C
16.07.2012 06:31 13,5 C 83 % 1018,9 hPa 0,0 l/m 13,7 km/h (3 Bft) SW 225 10,7 C 13,5 C
16.07.2012 06:36 14,2 C 83 % 1019,0 hPa 0,0 l/m 6,1 km/h (2 Bft) W-SW 247 11,4 C 14,2 C
16.07.2012 06:41 15,4 C 79 % 1018,8 hPa 0,0 l/m 12,2 km/h (2 Bft) SW 225 11,8 C 15,4 C
16.07.2012 06:46 16,4 C 75 % 1019,0 hPa 0,0 l/m 9,0 km/h (2 Bft) W-SW 247 12,0 C 16,4 C
16.07.2012 06:51 16,9 C 74 % 1019,1 hPa 0,0 l/m 6,8 km/h (2 Bft) W-SW 247 12,2 C 16,9 C
16.07.2012 06:56 16,7 C 73 % 1019,2 hPa 0,0 l/m 9,4 km/h (2 Bft) W-SW 247 11,8 C 16,7 C
16.07.2012 07:01 17,3 C 72 % 1019,3 hPa 0,0 l/m 12,2 km/h (2 Bft) W 270 12,2 C 17,3 C
16.07.2012 07:06 18,1 C 69 % 1019,2 hPa 0,0 l/m 19,8 km/h (3 Bft) W-SW 247 12,3 C 18,1 C
16.07.2012 07:11 16,5 C 71 % 1019,3 hPa 0,0 l/m 16,9 km/h (3 Bft) W-SW 247 11,2 C 16,5 C
16.07.2012 07:16 15,8 C 74 % 1019,4 hPa 0,0 l/m 9,4 km/h (2 Bft) W 270 11,2 C 15,8 C
16.07.2012 07:21 15,9 C 75 % 1019,5 hPa 0,0 l/m 10,4 km/h (2 Bft) W-SW 247 11,5 C 15,9 C
16.07.2012 07:26 15,4 C 75 % 1019,6 hPa 0,0 l/m 15,1 km/h (3 Bft) W 270 11,0 C 15,4 C
16.07.2012 07:31 15,3 C 76 % 1019,7 hPa 0,0 l/m 8,6 km/h (2 Bft) W 270 11,1 C 15,3 C
16.07.2012 07:36 14,9 C 77 % 1019,6 hPa 0,0 l/m 10,4 km/h (2 Bft) W 270 10,9 C 14,9 C
16.07.2012 07:41 14,9 C 77 % 1019,6 hPa 0,0 l/m 8,6 km/h (2 Bft) W 270 10,9 C 14,9 C
16.07.2012 07:46 14,8 C 77 % 1019,7 hPa 0,0 l/m 3,2 km/h (1 Bft) W 270 10,8 C 14,8 C
16.07.2012 07:51 14,6 C 78 % 1019,7 hPa 0,0 l/m 11,9 km/h (2 Bft) W 270 10,8 C 14,6 C
16.07.2012 07:56 14,6 C 78 % 1019,8 hPa 0,0 l/m 10,1 km/h (2 Bft) W 270 10,8 C 14,6 C
16.07.2012 08:01 14,8 C 78 % 1019,9 hPa 0,0 l/m 13,0 km/h (3 Bft) W-SW 247 11,0 C 14,8 C
16.07.2012 08:06 14,9 C 77 % 1019,9 hPa 0,0 l/m 4,0 km/h (1 Bft) W-SW 247 10,9 C 14,9 C
16.07.2012 08:11 14,9 C 77 % 1020,0 hPa 0,0 l/m 16,2 km/h (3 Bft) NW 315 10,9 C 14,9 C
16.07.2012 08:16 15,0 C 77 % 1020,0 hPa 0,0 l/m 19,1 km/h (3 Bft) W-SW 247 11,0 C 15,0 C
16.07.2012 08:21 15,4 C 76 % 1019,9 hPa 0,0 l/m 16,6 km/h (3 Bft) W 270 11,2 C 15,4 C
16.07.2012 08:26 15,4 C 75 % 1019,9 hPa 0,0 l/m 15,8 km/h (3 Bft) W-NW 292 11,0 C 15,4 C
16.07.2012 08:31 15,4 C 75 % 1020,0 hPa 0,0 l/m 5,8 km/h (2 Bft) W-NW 292 11,0 C 15,4 C
16.07.2012 08:36 15,5 C 75 % 1020,1 hPa 0,0 l/m 14,8 km/h (3 Bft) W 270 11,1 C 15,5 C
16.07.2012 08:41 15,9 C 75 % 1020,2 hPa 0,0 l/m 15,5 km/h (3 Bft) W-SW 247 11,5 C 15,9 C
16.07.2012 08:46 15,8 C 74 % 1020,3 hPa 0,0 l/m 19,4 km/h (3 Bft) W-SW 247 11,2 C 15,8 C
16.07.2012 08:51 15,7 C 73 % 1020,3 hPa 0,0 l/m 18,0 km/h (3 Bft) W-NW 292 10,9 C 15,7 C
16.07.2012 08:56 15,8 C 72 % 1020,3 hPa 0,0 l/m 4,7 km/h (1 Bft) W-SW 247 10,8 C 15,8 C
16.07.2012 09:01 16,6 C 72 % 1020,3 hPa 0,0 l/m 19,8 km/h (3 Bft) W-SW 247 11,5 C 16,6 C
16.07.2012 09:06 16,6 C 71 % 1020,3 hPa 0,0 l/m 7,6 km/h (2 Bft) W 270 11,3 C 16,6 C
16.07.2012 09:11 16,6 C 71 % 1020,4 hPa 0,0 l/m 4,3 km/h (1 Bft) SW 225 11,3 C 16,6 C
16.07.2012 09:16 16,8 C 71 % 1020,5 hPa 0,0 l/m 6,8 km/h (2 Bft) W-SW 247 11,5 C 16,8 C
16.07.2012 09:21 17,1 C 68 % 1020,4 hPa 0,0 l/m 8,3 km/h (2 Bft) W 270 11,1 C 17,1 C
16.07.2012 09:26 16,9 C 70 % 1020,4 hPa 0,0 l/m 13,7 km/h (3 Bft) W 270 11,4 C 16,9 C
16.07.2012 09:31 16,9 C 68 % 1020,3 hPa 0,0 l/m 16,9 km/h (3 Bft) SW 225 11,0 C 16,9 C
16.07.2012 09:36 17,4 C 68 % 1020,3 hPa 0,0 l/m 6,8 km/h (2 Bft) W-NW 292 11,4 C 17,4 C
16.07.2012 09:41 17,0 C 66 % 1020,4 hPa 0,0 l/m 20,2 km/h (4 Bft) W-SW 247 10,6 C 17,0 C
16.07.2012 09:46 16,9 C 67 % 1020,4 hPa 0,0 l/m 9,4 km/h (2 Bft) W-NW 292 10,7 C 16,9 C
16.07.2012 09:51 16,9 C 68 % 1020,4 hPa 0,0 l/m 5,4 km/h (1 Bft) W-SW 247 11,0 C 16,9 C
16.07.2012 09:56 17,3 C 66 % 1020,4 hPa 0,0 l/m 6,8 km/h (2 Bft) W-NW 292 10,9 C 17,3 C
16.07.2012 10:01 17,3 C 64 % 1020,5 hPa 0,0 l/m 7,9 km/h (2 Bft) W-NW 292 10,4 C 17,3 C
16.07.2012 10:06 17,9 C 65 % 1020,5 hPa 0,0 l/m 5,8 km/h (2 Bft) W-SW 247 11,2 C 17,9 C
16.07.2012 10:11 18,4 C 63 % 1020,4 hPa 0,0 l/m 16,6 km/h (3 Bft) W-SW 247 11,2 C 18,4 C
16.07.2012 10:16 18,8 C 60 % 1020,4 hPa 0,0 l/m 9,7 km/h (2 Bft) W-SW 247 10,9 C 18,8 C
16.07.2012 10:21 19,1 C 61 % 1020,5 hPa 0,0 l/m 24,8 km/h (4 Bft) W 270 11,4 C 19,1 C
16.07.2012 10:26 19,4 C 60 % 1020,5 hPa 0,0 l/m 13,7 km/h (3 Bft) S-SO 157 11,4 C 19,4 C
16.07.2012 10:31 19,6 C 59 % 1020,6 hPa 0,0 l/m 6,8 km/h (2 Bft) W-NW 292 11,4 C 19,6 C
16.07.2012 10:36 19,5 C 58 % 1020,6 hPa 0,0 l/m 7,6 km/h (2 Bft) NW 315 11,0 C 19,5 C
16.07.2012 10:41 19,8 C 58 % 1020,6 hPa 0,0 l/m 7,2 km/h (2 Bft) W-SW 247 11,3 C 19,8 C
16.07.2012 10:46 19,6 C 57 % 1020,5 hPa 0,0 l/m 13,7 km/h (3 Bft) W 270 10,8 C 19,6 C
16.07.2012 10:51 19,5 C 57 % 1020,5 hPa 0,0 l/m 3,6 km/h (1 Bft) NW 315 10,8 C 19,5 C
16.07.2012 10:56 19,6 C 56 % 1020,4 hPa 0,0 l/m 19,8 km/h (3 Bft) W-NW 292 10,6 C 19,6 C
16.07.2012 11:01 19,5 C 54 % 1020,5 hPa 0,0 l/m 10,1 km/h (2 Bft) W-SW 247 9,9 C 19,5 C
16.07.2012 11:06 19,5 C 54 % 1020,4 hPa 0,0 l/m 12,2 km/h (2 Bft) W-NW 292 9,9 C 19,5 C
16.07.2012 11:11 19,8 C 54 % 1020,3 hPa 0,0 l/m 11,2 km/h (2 Bft) W 270 10,2 C 19,8 C
16.07.2012 11:16 19,8 C 54 % 1020,3 hPa 0,0 l/m 2,2 km/h (1 Bft) NW 315 10,2 C 19,8 C
16.07.2012 11:21 20,1 C 55 % 1020,5 hPa 0,0 l/m 6,1 km/h (2 Bft) W-SW 247 10,8 C 20,1 C
16.07.2012 11:26 20,4 C 53 % 1020,4 hPa 0,0 l/m 21,6 km/h (4 Bft) W-SW 247 10,5 C 20,4 C
16.07.2012 11:31 20,3 C 51 % 1020,5 hPa 0,0 l/m 12,2 km/h (2 Bft) W 270 9,8 C 20,3 C
16.07.2012 11:36 20,3 C 51 % 1020,4 hPa 0,0 l/m 15,5 km/h (3 Bft) W 270 9,8 C 20,3 C
16.07.2012 11:41 19,9 C 51 % 1020,5 hPa 0,0 l/m 19,4 km/h (3 Bft) W-SW 247 9,5 C 19,9 C
16.07.2012 11:46 19,9 C 51 % 1020,4 hPa 0,0 l/m 3,6 km/h (1 Bft) NW 315 9,5 C 19,9 C
16.07.2012 11:51 20,3 C 49 % 1020,4 hPa 0,0 l/m 10,8 km/h (2 Bft) W 270 9,2 C 20,3 C
16.07.2012 11:56 20,2 C 48 % 1020,3 hPa 0,0 l/m 11,2 km/h (2 Bft) W-NW 292 8,8 C 20,2 C
16.07.2012 12:01 20,4 C 49 % 1020,3 hPa 0,0 l/m 18,0 km/h (3 Bft) W-SW 247 9,3 C 20,4 C
16.07.2012 12:06 20,1 C 48 % 1020,4 hPa 0,0 l/m 8,3 km/h (2 Bft) W 270 8,7 C 20,1 C
16.07.2012 12:11 20,5 C 47 % 1020,2 hPa 0,0 l/m 8,6 km/h (2 Bft) W 270 8,8 C 20,5 C
16.07.2012 12:16 20,4 C 47 % 1020,4 hPa 0,0 l/m 7,9 km/h (2 Bft) W-SW 247 8,7 C 20,4 C
16.07.2012 12:21 20,4 C 49 % 1020,4 hPa 0,0 l/m 4,7 km/h (1 Bft) W 270 9,3 C 20,4 C
16.07.2012 12:26 19,9 C 48 % 1020,4 hPa 0,0 l/m 5,8 km/h (2 Bft) W 270 8,6 C 19,9 C
16.07.2012 12:31 20,6 C 48 % 1020,4 hPa 0,0 l/m 13,7 km/h (3 Bft) W 270 9,2 C 20,6 C
16.07.2012 12:36 20,3 C 48 % 1020,4 hPa 0,0 l/m 8,3 km/h (2 Bft) SW 225 8,9 C 20,3 C
16.07.2012 12:41 20,0 C 48 % 1020,4 hPa 0,0 l/m 19,1 km/h (3 Bft) W-SW 247 8,7 C 20,0 C
16.07.2012 12:46 19,6 C 48 % 1020,5 hPa 0,0 l/m 6,5 km/h (2 Bft) W-SW 247 8,3 C 19,6 C
16.07.2012 12:51 19,3 C 49 % 1020,4 hPa 0,0 l/m 10,4 km/h (2 Bft) W 270 8,3 C 19,3 C
16.07.2012 12:56 18,6 C 50 % 1020,5 hPa 0,0 l/m 25,2 km/h (4 Bft) W 270 8,0 C 18,6 C
16.07.2012 13:01 17,9 C 55 % 1020,8 hPa 0,0 l/m 27,7 km/h (4 Bft) NW 315 8,7 C 17,9 C
16.07.2012 13:06 16,8 C 60 % 1021,0 hPa 0,0 l/m 11,2 km/h (2 Bft) NW 315 9,0 C 16,8 C
16.07.2012 13:11 16,2 C 63 % 1021,2 hPa 0,0 l/m 16,6 km/h (3 Bft) W-SW 247 9,1 C 16,2 C
16.07.2012 13:16 15,6 C 64 % 1021,4 hPa 0,0 l/m 16,2 km/h (3 Bft) W 270 8,8 C 15,6 C
16.07.2012 13:21 15,5 C 65 % 1021,2 hPa 0,0 l/m 15,8 km/h (3 Bft) W-SW 247 8,9 C 15,5 C
16.07.2012 13:26 15,9 C 66 % 1021,2 hPa 0,0 l/m 11,9 km/h (2 Bft) W-SW 247 9,6 C 15,9 C
16.07.2012 13:31 15,9 C 66 % 1021,0 hPa 0,0 l/m 14,8 km/h (3 Bft) W-NW 292 9,6 C 15,9 C
16.07.2012 13:36 15,8 C 66 % 1020,9 hPa 0,0 l/m 12,2 km/h (2 Bft) W-SW 247 9,5 C 15,8 C
16.07.2012 13:41 15,9 C 66 % 1020,9 hPa 0,0 l/m 15,1 km/h (3 Bft) SW 225 9,6 C 15,9 C
16.07.2012 13:46 16,2 C 65 % 1020,6 hPa 0,0 l/m 13,0 km/h (3 Bft) SW 225 9,6 C 16,2 C
16.07.2012 13:51 16,6 C 65 % 1020,8 hPa 0,0 l/m 18,0 km/h (3 Bft) SW 225 10,0 C 16,6 C
16.07.2012 13:56 17,6 C 63 % 1020,5 hPa 0,0 l/m 7,2 km/h (2 Bft) W-SW 247 10,5 C 17,6 C
16.07.2012 14:01 18,2 C 61 % 1020,4 hPa 0,0 l/m 14,0 km/h (3 Bft) W-SW 247 10,6 C 18,2 C
16.07.2012 14:06 19,3 C 58 % 1020,4 hPa 0,0 l/m 9,0 km/h (2 Bft) SW 225 10,8 C 19,3 C
16.07.2012 14:11 19,9 C 57 % 1020,3 hPa 0,0 l/m 14,4 km/h (3 Bft) W-SW 247 11,1 C 19,9 C
16.07.2012 14:16 20,2 C 56 % 1020,2 hPa 0,0 l/m 9,4 km/h (2 Bft) SW 225 11,1 C 20,2 C
16.07.2012 14:21 20,4 C 56 % 1020,2 hPa 0,0 l/m 17,6 km/h (3 Bft) SW 225 11,3 C 20,4 C
16.07.2012 14:26 20,7 C 55 % 1020,0 hPa 0,0 l/m 3,6 km/h (1 Bft) W 270 11,3 C 20,7 C
16.07.2012 14:31 20,6 C 55 % 1020,2 hPa 0,0 l/m 10,8 km/h (2 Bft) W-SW 247 11,2 C 20,6 C
16.07.2012 14:36 20,5 C 56 % 1020,2 hPa 0,0 l/m 18,7 km/h (3 Bft) SW 225 11,4 C 20,5 C
16.07.2012 14:41 20,3 C 56 % 1020,0 hPa 0,0 l/m 7,9 km/h (2 Bft) SW 225 11,2 C 20,3 C
16.07.2012 14:46 19,4 C 57 % 1020,1 hPa 0,0 l/m 16,2 km/h (3 Bft) W-SW 247 10,7 C 19,4 C
16.07.2012 14:51 17,2 C 66 % 1020,6 hPa 0,5 l/m 26,6 km/h (4 Bft) NW 315 10,8 C 17,2 C
16.07.2012 14:56 15,4 C 73 % 1020,5 hPa 1,0 l/m 8,3 km/h (2 Bft) W 270 10,6 C 15,4 C
16.07.2012 15:01 15,3 C 75 % 1020,6 hPa 0,0 l/m 7,2 km/h (2 Bft) SW 225 10,9 C 15,3 C
16.07.2012 15:06 15,8 C 76 % 1020,6 hPa 0,0 l/m 14,4 km/h (3 Bft) W-SW 247 11,6 C 15,8 C
16.07.2012 15:11 16,2 C 75 % 1020,6 hPa 0,0 l/m 5,4 km/h (1 Bft) W 270 11,8 C 16,2 C
16.07.2012 15:16 16,6 C 74 % 1020,4 hPa 0,0 l/m 1,8 km/h (1 Bft) W-SW 247 11,9 C 16,6 C
16.07.2012 15:21 17,1 C 72 % 1020,4 hPa 0,0 l/m 9,4 km/h (2 Bft) W-SW 247 12,0 C 17,1 C
16.07.2012 15:26 17,4 C 71 % 1020,3 hPa 0,0 l/m 14,4 km/h (3 Bft) W-SW 247 12,1 C 17,4 C
16.07.2012 15:31 18,4 C 70 % 1020,3 hPa 0,0 l/m 6,1 km/h (2 Bft) W 270 12,8 C 18,4 C
16.07.2012 15:36 18,6 C 67 % 1020,2 hPa 0,0 l/m 6,1 km/h (2 Bft) W 270 12,3 C 18,6 C
16.07.2012 15:41 18,9 C 66 % 1020,1 hPa 0,0 l/m 15,1 km/h (3 Bft) S-SW 202 12,4 C 18,9 C
16.07.2012 15:46 18,6 C 63 % 1020,1 hPa 0,0 l/m 5,0 km/h (1 Bft) N 360 11,4 C 18,6 C
16.07.2012 15:51 18,4 C 64 % 1020,2 hPa 0,0 l/m 5,8 km/h (2 Bft) W-SW 247 11,5 C 18,4 C
16.07.2012 15:56 18,5 C 61 % 1020,2 hPa 0,0 l/m 27,0 km/h (4 Bft) W-NW 292 10,8 C 18,5 C
16.07.2012 16:01 18,9 C 61 % 1020,1 hPa 0,0 l/m 13,3 km/h (3 Bft) W 270 11,2 C 18,9 C
16.07.2012 16:06 19,3 C 57 % 1020,2 hPa 0,0 l/m 21,2 km/h (4 Bft) W 270 10,6 C 19,3 C
16.07.2012 16:11 19,3 C 57 % 1020,1 hPa 0,0 l/m 9,4 km/h (2 Bft) W 270 10,6 C 19,3 C
16.07.2012 16:16 19,1 C 58 % 1020,1 hPa 0,0 l/m 16,6 km/h (3 Bft) W-NW 292 10,6 C 19,1 C
16.07.2012 16:21 18,7 C 57 % 1020,0 hPa 0,0 l/m 4,0 km/h (1 Bft) SW 225 10,0 C 18,7 C
16.07.2012 16:26 18,3 C 58 % 1020,0 hPa 0,0 l/m 13,7 km/h (3 Bft) W 270 9,9 C 18,3 C
16.07.2012 16:31 18,0 C 59 % 1020,1 hPa 0,0 l/m 4,0 km/h (1 Bft) W-SW 247 9,9 C 18,0 C
16.07.2012 16:36 17,9 C 60 % 1020,1 hPa 0,0 l/m 10,1 km/h (2 Bft) W-SW 247 10,0 C 17,9 C
16.07.2012 16:41 17,9 C 59 % 1020,1 hPa 0,0 l/m 16,9 km/h (3 Bft) W 270 9,8 C 17,9 C
16.07.2012 16:46 17,8 C 60 % 1020,0 hPa 0,0 l/m 13,3 km/h (3 Bft) S-SW 202 9,9 C 17,8 C
16.07.2012 16:51 17,9 C 60 % 1019,9 hPa 0,0 l/m 13,7 km/h (3 Bft) W 270 10,0 C 17,9 C
16.07.2012 16:56 18,7 C 58 % 1019,9 hPa 0,0 l/m 7,2 km/h (2 Bft) W 270 10,3 C 18,7 C
16.07.2012 17:01 19,3 C 56 % 1019,8 hPa 0,0 l/m 8,6 km/h (2 Bft) NW 315 10,3 C 19,3 C
16.07.2012 17:06 19,6 C 55 % 1019,8 hPa 0,0 l/m 18,0 km/h (3 Bft) W-SW 247 10,3 C 19,6 C
16.07.2012 17:11 19,9 C 54 % 1019,7 hPa 0,0 l/m 22,0 km/h (4 Bft) W-SW 247 10,3 C 19,9 C
16.07.2012 17:16 20,3 C 52 % 1019,9 hPa 0,0 l/m 19,4 km/h (3 Bft) W-SW 247 10,1 C 20,3 C
16.07.2012 17:21 19,8 C 50 % 1019,8 hPa 0,0 l/m 22,0 km/h (4 Bft) W 270 9,1 C 19,8 C
16.07.2012 17:26 19,9 C 52 % 1019,8 hPa 0,0 l/m 7,9 km/h (2 Bft) W-NW 292 9,7 C 19,9 C
16.07.2012 17:31 19,4 C 53 % 1019,8 hPa 0,0 l/m 4,7 km/h (1 Bft) W-NW 292 9,6 C 19,4 C
16.07.2012 17:36 19,0 C 54 % 1019,7 hPa 0,0 l/m 9,7 km/h (2 Bft) W 270 9,5 C 19,0 C
16.07.2012 17:41 18,8 C 55 % 1019,8 hPa 0,0 l/m 8,3 km/h (2 Bft) W-SW 247 9,6 C 18,8 C
16.07.2012 17:46 18,5 C 56 % 1019,5 hPa 0,0 l/m 13,0 km/h (3 Bft) NW 315 9,6 C 18,5 C
16.07.2012 17:51 18,3 C 57 % 1019,7 hPa 0,0 l/m 2,5 km/h (1 Bft) W 270 9,6 C 18,3 C
16.07.2012 17:56 18,3 C 57 % 1019,6 hPa 0,0 l/m 13,3 km/h (3 Bft) W-SW 247 9,6 C 18,3 C
16.07.2012 18:01 18,4 C 58 % 1019,7 hPa 0,0 l/m 14,8 km/h (3 Bft) W-SW 247 10,0 C 18,4 C
16.07.2012 18:06 18,4 C 58 % 1019,6 hPa 0,0 l/m 15,5 km/h (3 Bft) W-SW 247 10,0 C 18,4 C
16.07.2012 18:11 18,5 C 60 % 1019,6 hPa 0,0 l/m 12,2 km/h (2 Bft) W-SW 247 10,6 C 18,5 C
16.07.2012 18:16 18,3 C 59 % 1019,7 hPa 0,0 l/m 12,6 km/h (3 Bft) W-SW 247 10,1 C 18,3 C
16.07.2012 18:21 18,1 C 61 % 1019,7 hPa 0,0 l/m 31,7 km/h (5 Bft) W 270 10,5 C 18,1 C
16.07.2012 18:26 17,9 C 62 % 1019,8 hPa 0,0 l/m 23,4 km/h (4 Bft) W-SW 247 10,5 C 17,9 C
16.07.2012 18:31 17,8 C 63 % 1019,7 hPa 0,0 l/m 12,2 km/h (2 Bft) W-SW 247 10,7 C 17,8 C
16.07.2012 18:36 17,6 C 64 % 1019,7 hPa 0,0 l/m 20,5 km/h (4 Bft) W-SW 247 10,7 C 17,6 C
16.07.2012 18:41 17,6 C 65 % 1019,7 hPa 0,0 l/m 15,8 km/h (3 Bft) S-SW 202 10,9 C 17,6 C
16.07.2012 18:46 17,8 C 64 % 1019,6 hPa 0,0 l/m 16,6 km/h (3 Bft) W 270 10,9 C 17,8 C
16.07.2012 18:51 17,8 C 63 % 1019,7 hPa 0,0 l/m 7,9 km/h (2 Bft) W-SW 247 10,7 C 17,8 C
16.07.2012 18:56 17,8 C 63 % 1019,7 hPa 0,0 l/m 6,5 km/h (2 Bft) W 270 10,7 C 17,8 C
16.07.2012 19:01 17,9 C 63 % 1019,7 hPa 0,0 l/m 21,2 km/h (4 Bft) SW 225 10,8 C 17,9 C
16.07.2012 19:06 17,6 C 62 % 1019,7 hPa 0,0 l/m 14,4 km/h (3 Bft) W-SW 247 10,2 C 17,6 C
16.07.2012 19:11 17,5 C 62 % 1019,8 hPa 0,0 l/m 11,9 km/h (2 Bft) W 270 10,1 C 17,5 C
16.07.2012 19:16 17,2 C 63 % 1019,7 hPa 0,0 l/m 30,2 km/h (5 Bft) W 270 10,1 C 17,2 C
16.07.2012 19:21 17,0 C 64 % 1019,7 hPa 0,0 l/m 20,5 km/h (4 Bft) W 270 10,1 C 17,0 C
16.07.2012 19:26 16,9 C 65 % 1019,7 hPa 0,0 l/m 13,0 km/h (3 Bft) W-SW 247 10,3 C 16,9 C
16.07.2012 19:31 16,8 C 66 % 1019,5 hPa 0,0 l/m 14,0 km/h (3 Bft) W-SW 247 10,4 C 16,8 C
16.07.2012 19:36 16,6 C 66 % 1019,4 hPa 0,0 l/m 3,6 km/h (1 Bft) W-SW 247 10,2 C 16,6 C
16.07.2012 19:41 16,5 C 67 % 1019,6 hPa 0,0 l/m 13,7 km/h (3 Bft) W-SW 247 10,4 C 16,5 C
16.07.2012 19:46 16,5 C 67 % 1019,5 hPa 0,0 l/m 18,0 km/h (3 Bft) W 270 10,4 C 16,5 C
16.07.2012 19:51 16,4 C 68 % 1019,5 hPa 0,0 l/m 18,4 km/h (3 Bft) W-SW 247 10,5 C 16,4 C
16.07.2012 19:56 16,4 C 68 % 1019,6 hPa 0,0 l/m 4,3 km/h (1 Bft) W 270 10,5 C 16,4 C
16.07.2012 20:01 16,2 C 70 % 1019,7 hPa 0,5 l/m 7,9 km/h (2 Bft) W 270 10,7 C 16,2 C
16.07.2012 20:06 15,7 C 73 % 1019,7 hPa 0,5 l/m 9,4 km/h (2 Bft) W-NW 292 10,9 C 15,7 C
16.07.2012 20:11 15,2 C 76 % 1019,9 hPa 0,5 l/m 2,9 km/h (1 Bft) NW 315 11,0 C 15,2 C
16.07.2012 20:16 14,8 C 78 % 1019,8 hPa 1,0 l/m 2,2 km/h (1 Bft) NW 315 11,0 C 14,8 C
16.07.2012 20:21 14,4 C 79 % 1019,6 hPa 0,5 l/m 0,0 km/h (0 Bft) NO 45 10,8 C 14,4 C
16.07.2012 20:26 14,2 C 81 % 1019,4 hPa 0,0 l/m 0,0 km/h (0 Bft) NO 45 11,0 C 14,2 C
16.07.2012 20:31 14,1 C 81 % 1019,4 hPa 0,0 l/m 0,0 km/h (0 Bft) NO 45 10,9 C 14,1 C
16.07.2012 20:36 14,0 C 82 % 1019,3 hPa 0,0 l/m 1,1 km/h (1 Bft) NO 45 11,0 C 14,0 C
16.07.2012 20:41 14,1 C 82 % 1019,3 hPa 0,0 l/m 2,2 km/h (1 Bft) NO 45 11,1 C 14,1 C
16.07.2012 20:46 14,1 C 83 % 1019,3 hPa 0,0 l/m 0,0 km/h (0 Bft) S 180 11,3 C 14,1 C
16.07.2012 20:51 14,1 C 83 % 1019,4 hPa 0,0 l/m 0,0 km/h (0 Bft) S-SW 202 11,3 C 14,1 C
16.07.2012 20:56 14,1 C 84 % 1019,1 hPa 0,0 l/m 1,4 km/h (1 Bft) S-SW 202 11,4 C 14,1 C
16.07.2012 21:01 14,2 C 84 % 1019,1 hPa 0,0 l/m 0,0 km/h (0 Bft) S-SW 202 11,5 C 14,2 C
16.07.2012 21:06 14,2 C 84 % 1019,2 hPa 0,0 l/m 0,0 km/h (0 Bft) S 180 11,5 C 14,2 C
16.07.2012 21:11 14,3 C 84 % 1019,2 hPa 0,0 l/m 3,2 km/h (1 Bft) S 180 11,6 C 14,3 C
16.07.2012 21:16 14,3 C 84 % 1019,2 hPa 0,0 l/m 4,7 km/h (1 Bft) S 180 11,6 C 14,3 C
16.07.2012 21:21 14,4 C 83 % 1019,0 hPa 0,0 l/m 5,8 km/h (2 Bft) S 180 11,5 C 14,4 C
16.07.2012 21:26 14,4 C 83 % 1019,0 hPa 0,0 l/m 1,4 km/h (1 Bft) S-SW 202 11,5 C 14,4 C
16.07.2012 21:31 14,4 C 83 % 1019,1 hPa 0,0 l/m 2,5 km/h (1 Bft) S-SW 202 11,5 C 14,4 C
16.07.2012 21:36 14,4 C 83 % 1019,1 hPa 0,0 l/m 5,8 km/h (2 Bft) S-SW 202 11,5 C 14,4 C
16.07.2012 21:41 14,4 C 83 % 1018,9 hPa 0,0 l/m 5,8 km/h (2 Bft) SW 225 11,5 C 14,4 C
16.07.2012 21:46 14,4 C 83 % 1019,0 hPa 0,0 l/m 9,7 km/h (2 Bft) S 180 11,5 C 14,4 C
16.07.2012 21:51 14,5 C 83 % 1018,9 hPa 0,0 l/m 2,2 km/h (1 Bft) SW 225 11,6 C 14,5 C
16.07.2012 21:56 14,5 C 83 % 1019,0 hPa 0,0 l/m 2,9 km/h (1 Bft) S-SW 202 11,6 C 14,5 C
16.07.2012 22:01 14,5 C 83 % 1019,0 hPa 0,0 l/m 6,1 km/h (2 Bft) S-SW 202 11,6 C 14,5 C
16.07.2012 22:06 14,5 C 83 % 1019,0 hPa 0,0 l/m 4,7 km/h (1 Bft) S-SW 202 11,6 C 14,5 C
16.07.2012 22:11 14,5 C 83 % 1018,9 hPa 0,0 l/m 4,0 km/h (1 Bft) SW 225 11,6 C 14,5 C
16.07.2012 22:16 14,6 C 84 % 1019,1 hPa 0,0 l/m 2,5 km/h (1 Bft) S-SW 202 11,9 C 14,6 C
16.07.2012 22:21 14,6 C 84 % 1019,0 hPa 0,0 l/m 2,2 km/h (1 Bft) SW 225 11,9 C 14,6 C
16.07.2012 22:26 14,6 C 84 % 1018,9 hPa 0,0 l/m 3,2 km/h (1 Bft) S-SW 202 11,9 C 14,6 C
16.07.2012 22:31 14,7 C 84 % 1018,8 hPa 0,0 l/m 11,9 km/h (2 Bft) SW 225 12,0 C 14,7 C
16.07.2012 22:36 14,8 C 84 % 1018,8 hPa 0,0 l/m 23,0 km/h (4 Bft) SW 225 12,1 C 14,8 C
16.07.2012 22:41 14,8 C 83 % 1018,8 hPa 0,0 l/m 12,2 km/h (2 Bft) W-SW 247 11,9 C 14,8 C
16.07.2012 22:46 14,7 C 83 % 1018,9 hPa 0,0 l/m 13,7 km/h (3 Bft) W 270 11,8 C 14,7 C
16.07.2012 22:51 14,5 C 83 % 1018,9 hPa 0,0 l/m 13,0 km/h (3 Bft) W 270 11,6 C 14,5 C
16.07.2012 22:56 14,3 C 84 % 1018,9 hPa 0,0 l/m 26,3 km/h (4 Bft) W-SW 247 11,6 C 14,3 C
16.07.2012 23:01 14,1 C 85 % 1018,6 hPa 0,5 l/m 19,4 km/h (3 Bft) W-SW 247 11,6 C 14,1 C
16.07.2012 23:06 13,8 C 86 % 1018,6 hPa 0,5 l/m 14,8 km/h (3 Bft) W 270 11,5 C 13,8 C
16.07.2012 23:11 13,8 C 86 % 1018,6 hPa 0,0 l/m 13,0 km/h (3 Bft) SW 225 11,5 C 13,8 C
16.07.2012 23:16 13,6 C 87 % 1018,6 hPa 0,0 l/m 13,7 km/h (3 Bft) S-SW 202 11,5 C 13,6 C
16.07.2012 23:21 13,6 C 87 % 1018,6 hPa 0,0 l/m 13,0 km/h (3 Bft) SW 225 11,5 C 13,6 C
16.07.2012 23:26 13,6 C 87 % 1018,4 hPa 0,5 l/m 3,6 km/h (1 Bft) S 180 11,5 C 13,6 C
16.07.2012 23:31 13,6 C 88 % 1018,4 hPa 0,0 l/m 4,0 km/h (1 Bft) SW 225 11,6 C 13,6 C
16.07.2012 23:36 13,7 C 88 % 1018,4 hPa 0,0 l/m 20,5 km/h (4 Bft) SW 225 11,7 C 13,7 C
16.07.2012 23:41 13,7 C 87 % 1018,5 hPa 0,0 l/m 6,1 km/h (2 Bft) W-SW 247 11,6 C 13,7 C
16.07.2012 23:46 13,6 C 88 % 1018,1 hPa 0,0 l/m 5,8 km/h (2 Bft) SW 225 11,6 C 13,6 C
16.07.2012 23:51 13,6 C 88 % 1018,1 hPa 0,0 l/m 14,4 km/h (3 Bft) W-SW 247 11,6 C 13,6 C
16.07.2012 23:56 13,6 C 88 % 1018,0 hPa 0,0 l/m 8,3 km/h (2 Bft) S 180 11,6 C 13,6 C
_ Min-Zeit 05:16 12:11 00:01 - 00:01 - - 12:56 05:16
Minimum _ 12,9 C 47 % 1016,3 hPa - 0,0 km/h (0 Bft) - - 8,0 C 12,9 C
_ Max-Zeit 14:26 23:31 13:16 14:56 18:21 - - 15:31 14:26
Maximum _ 20,7 C 88 % 1021,4 hPa 1,0 l/m 31,7 km/h
W (5 Bft)
- - 12,8 C 20,7 C
Durchschnitt _ 16,2 C 71 % 1019,3 hPa #6,2 l/m 9,8 km/h (2 Bft) W-SW - 10,7 C 16,2 C
(c) by David Heller